Time;durP1;ratioP1;P1;durP2;ratioP2;P2;SDS_P1;SDS_P2;PMS_P1;PMS_P2;Temp;Humidity;BMP_temperature;BMP_pressure;BME280_temperature;BME280_humidity;BME280_pressure;Samples;Min_cycle;Max_cycle;Signal;HPM_P1;HPM_P2
2023/04/21 00:00:47;;;;;;;;;;;;;;;;;;;;;
2023/04/21 00:05:03;;;;;;;7.37;5.13;;;3.40;99.90;;;;;;8261113;28;20228;-73
2023/04/21 00:09:23;;;;;;;;;;;;;;;;;;;;;
2023/04/21 00:13:55;;;;;;;9.33;5.90;;;3.30;99.90;;;;;;8306843;28;20215;-73
2023/04/21 00:18:09;;;;;;;7.30;5.80;;;3.20;99.90;;;;;;8303273;28;20197;-74
2023/04/21 00:22:29;;;;;;;7.90;5.40;;;3.20;99.90;;;;;;8328298;28;20217;-74
2023/04/21 00:27:43;;;;;;;7.67;5.40;;;3.10;99.90;;;;;;8307879;28;20240;-73
2023/04/21 00:32:07;;;;;;;5.80;5.07;;;3.10;99.90;;;;;;8309976;28;20221;-73
2023/04/21 00:36:39;;;;;;;6.97;5.43;;;3.00;99.90;;;;;;8307810;28;20182;-73
2023/04/21 00:45:43;;;;;;;8.27;6.37;;;2.90;99.90;;;;;;8232565;28;20293;-74
2023/04/21 00:54:41;;;;;;;8.77;6.57;;;2.90;99.90;;;;;;8329125;28;20189;-73
2023/04/21 00:59:16;;;;;;;;;;;;;;;;;;;;;
2023/04/21 01:03:49;;;;;;;8.10;6.63;;;2.80;99.90;;;;;;8328162;28;20237;-74
2023/04/21 01:08:57;;;;;;;10.50;6.80;;;2.70;99.90;;;;;;8318971;28;20210;-72
2023/04/21 01:13:39;;;;;;;7.40;5.77;;;2.60;99.90;;;;;;8227255;28;20287;-73
2023/04/21 01:27:13;;;;;;;12.20;7.40;;;2.40;99.90;;;;;;8182186;28;20203;-73
2023/04/21 01:32:01;;;;;;;8.67;6.53;;;2.30;99.90;;;;;;8170809;28;20247;-73
2023/04/21 01:36:45;;;;;;;12.03;6.30;;;2.30;99.90;;;;;;8243685;28;20192;-73
2023/04/21 01:41:33;;;;;;;11.67;6.77;;;2.20;99.90;;;;;;8232893;28;20306;-73
2023/04/21 01:50:42;;;;;;;6.67;5.50;;;2.10;99.90;;;;;;8164259;28;20220;-73
2023/04/21 01:55:10;;;;;;;7.23;5.23;;;2.00;99.90;;;;;;8164721;28;20357;-74
2023/04/21 01:59:53;;;;;;;8.47;6.00;;;2.00;99.90;;;;;;8230285;28;20216;-73
2023/04/21 02:04:16;;;;;;;9.77;6.70;;;1.90;99.90;;;;;;8187064;28;20300;-72
2023/04/21 02:14:37;;;;;;;9.90;5.87;;;1.70;99.90;;;;;;8202909;28;20191;-72
2023/04/21 02:19:12;;;;;;;10.80;6.80;;;1.60;99.90;;;;;;8282855;28;20274;-72
2023/04/21 02:38:35;;;;;;;8.60;6.77;;;1.60;99.90;;;;;;8165947;28;20209;-73
2023/04/21 02:43:10;;;;;;;;;;;;;;;;;;;;;
2023/04/21 02:47:53;;;;;;;8.70;6.10;;;1.50;99.90;;;;;;8259005;28;20456;-73
2023/04/21 02:52:25;;;;;;;10.03;6.10;;;1.40;99.90;;;;;;8254859;28;20299;-73
2023/04/21 02:56:58;;;;;;;11.90;7.60;;;1.40;99.90;;;;;;8525831;22;20348;-71
2023/04/21 03:11:31;;;;;;;21.43;10.23;;;1.30;99.90;;;;;;8355270;28;20225;-71
2023/04/21 03:15:58;;;;;;;16.57;9.37;;;1.30;99.90;;;;;;8234294;28;20196;-73
2023/04/21 03:20:45;;;;;;;19.70;9.33;;;1.20;99.90;;;;;;8262722;28;20270;-72
2023/04/21 03:25:11;;;;;;;15.60;9.63;;;1.10;99.90;;;;;;8367223;28;20220;-71
2023/04/21 03:29:43;;;;;;;;;;;;;;;;;;;;;
2023/04/21 03:34:18;;;;;;;20.70;10.43;;;1.10;99.90;;;;;;8361554;28;20193;-72
2023/04/21 03:38:37;;;;;;;15.33;9.87;;;1.00;99.90;;;;;;8294680;28;20199;-72
2023/04/21 03:42:38;;;;;;;17.50;9.17;;;1.00;99.90;;;;;;8278073;28;20191;-71
2023/04/21 03:47:08;;;;;;;17.53;9.53;;;1.00;99.90;;;;;;8277124;28;20179;-71
2023/04/21 03:51:24;;;;;;;15.73;9.50;;;1.00;99.90;;;;;;8185205;28;20236;-72
2023/04/21 03:55:28;;;;;;;12.97;8.63;;;1.00;99.90;;;;;;8263278;28;20234;-72
2023/04/21 03:59:48;;;;;;;15.03;9.57;;;1.00;99.90;;;;;;8250226;28;20209;-72
2023/04/21 04:03:49;;;;;;;13.23;9.63;;;1.00;99.90;;;;;;8266383;28;20203;-72
2023/04/21 04:07:51;;;;;;;17.93;11.23;;;1.10;99.90;;;;;;8255700;28;20207;-72
2023/04/21 04:12:04;;;;;;;16.47;10.37;;;1.20;99.90;;;;;;8251744;28;20218;-72
2023/04/21 04:16:08;;;;;;;16.07;10.63;;;1.30;99.90;;;;;;8319313;28;20194;-72
2023/04/21 04:20:13;;;;;;;16.13;11.53;;;1.50;99.90;;;;;;8323325;28;20189;-71
2023/04/21 04:24:28;;;;;;;;;;;;;;;;;;;;;
2023/04/21 04:33:00;;;;;;;21.03;12.50;;;2.40;99.90;;;;;;8321594;28;20228;-71
2023/04/21 04:37:26;;;;;;;19.00;13.23;;;2.80;99.90;;;;;;8331524;28;20190;-71
2023/04/21 04:41:43;;;;;;;15.10;11.13;;;3.20;99.90;;;;;;8333508;28;20195;-71
2023/04/21 04:46:30;;;;;;;20.63;13.30;;;3.60;99.90;;;;;;8308574;28;20235;-72
2023/04/21 04:50:41;;;;;;;17.47;13.03;;;3.90;99.90;;;;;;8313004;28;20218;-71
2023/04/21 04:54:48;;;;;;;17.97;13.53;;;4.30;99.90;;;;;;8317745;28;20190;-70
2023/04/21 04:59:14;;;;;;;19.93;13.13;;;4.40;99.90;;;;;;8312820;28;20239;-70
2023/04/21 05:03:36;;;;;;;16.17;11.80;;;4.50;99.90;;;;;;8314091;28;20198;-72
2023/04/21 05:08:06;;;;;;;17.97;11.93;;;4.50;99.90;;;;;;8335147;28;20259;-72
2023/04/21 05:12:45;;;;;;;18.77;12.93;;;4.50;99.90;;;;;;8230580;28;20212;-71
2023/04/21 05:17:08;;;;;;;;;;;;;;;;;;;;;
2023/04/21 05:21:52;;;;;;;14.73;11.77;;;4.60;99.90;;;;;;8224555;28;20223;-71
2023/04/21 05:26:38;;;;;;;15.73;11.17;;;4.70;99.90;;;;;;8211544;28;20193;-71
2023/04/21 05:36:00;;;;;;;19.93;14.30;;;5.20;99.90;;;;;;8170761;28;20189;-71
2023/04/21 05:40:05;;;;;;;23.70;16.93;;;5.40;99.90;;;;;;8150950;28;20197;-70
2023/04/21 05:44:48;;;;;;;36.20;25.33;;;5.70;99.90;;;;;;8255460;28;20199;-70
2023/04/21 05:53:48;;;;;;;35.17;26.03;;;6.20;99.90;;;;;;8337941;28;20332;-72
2023/04/21 05:58:25;;;;;;;;;;;;;;;;;;;;;
2023/04/21 06:03:06;;;;;;;48.03;33.00;;;6.90;99.90;;;;;;8335586;28;20276;-72
2023/04/21 06:07:17;;;;;;;41.60;30.23;;;7.30;99.90;;;;;;8203245;28;20299;-72
2023/04/21 06:11:18;;;;;;;48.33;32.77;;;7.60;99.90;;;;;;8194822;28;20223;-72
2023/04/21 06:15:22;;;;;;;38.80;27.03;;;7.90;99.90;;;;;;8290751;28;20217;-73
2023/04/21 06:19:29;;;;;;;33.20;22.70;;;8.30;99.90;;;;;;8335499;28;20193;-73
2023/04/21 06:23:43;;;;;;;33.87;21.17;;;8.70;99.90;;;;;;8318535;28;20194;-72
2023/04/21 06:32:20;;;;;;;22.50;17.33;;;9.50;99.90;;;;;;8351499;28;20256;-74
2023/04/21 06:36:27;;;;;;;25.00;17.43;;;9.80;99.90;;;;;;8334340;28;20189;-74
2023/04/21 06:46:30;;;;;;;19.97;14.03;;;10.30;1.00;;;;;;8318863;28;20226;-74
2023/04/21 06:55:39;;;;;;;31.50;19.83;;;10.80;1.00;;;;;;8295057;28;20296;-71
2023/04/21 06:59:43;;;;;;;25.23;16.87;;;11.10;99.90;;;;;;8324338;28;20204;-71
2023/04/21 07:04:07;;;;;;;;;;;;;;;;;;;;;
2023/04/21 07:08:40;;;;;;;17.27;12.50;;;11.50;99.90;;;;;;8330278;28;20230;-71
2023/04/21 07:12:47;;;;;;;17.03;12.97;;;11.80;99.90;;;;;;8316935;28;20209;-73
2023/04/21 07:17:41;;;;;;;20.87;13.87;;;11.90;99.90;;;;;;8343671;28;20182;-74
2023/04/21 07:26:51;;;;;;;17.33;12.50;;;12.40;99.90;;;;;;8316795;28;20197;-73
2023/04/21 07:31:36;;;;;;;22.37;13.63;;;12.80;99.90;;;;;;8333280;28;20210;-73
2023/04/21 07:36:20;;;;;;;25.30;11.73;;;13.10;98.00;;;;;;8188697;28;20196;-74
2023/04/21 07:41:02;;;;;;;;;;;;;;;;;;;;;
2023/04/21 07:45:45;;;;;;;;;;;;;;;;;;;;;
2023/04/21 07:50:25;;;;;;;26.33;17.27;;;13.70;34.10;;;;;;8355642;28;20221;-72
2023/04/21 07:55:23;;;;;;;17.57;11.40;;;13.90;18.70;;;;;;8333999;28;20189;-72
2023/04/21 08:00:12;;;;;;;;;;;;;;;;;;;;;
2023/04/21 08:05:23;;;;;;;20.07;13.17;;;14.40;7.70;;;;;;8349987;28;20197;-72
2023/04/21 08:09:45;;;;;;;13.77;9.63;;;14.70;1.00;;;;;;8216634;28;20204;-72
2023/04/21 08:14:23;;;;;;;;;;;;;;;;;;;;;
2023/04/21 08:18:32;;;;;;;19.33;11.17;;;15.10;1.00;;;;;;8243828;28;20205;-73
2023/04/21 08:27:22;;;;;;;14.57;9.23;;;15.40;1.00;;;;;;8350995;28;20213;-72
2023/04/21 08:31:32;;;;;;;14.50;10.10;;;15.60;1.00;;;;;;8346559;28;20209;-69
2023/04/21 08:36:20;;;;;;;24.40;11.57;;;15.90;1.00;;;;;;8348483;28;20270;-72
2023/04/21 09:00:41;;;;;;;16.47;9.10;;;16.90;1.00;;;;;;8377898;28;20226;-73
2023/04/21 09:15:14;;;;;;;12.97;8.63;;;17.20;1.00;;;;;;8343525;28;20219;-71
2023/04/21 09:25:14;;;;;;;9.10;6.57;;;17.70;1.00;;;;;;8148352;28;20199;-72
2023/04/21 09:34:34;;;;;;;10.17;7.90;;;17.90;1.00;;;;;;8282290;28;20198;-72
2023/04/21 09:39:27;;;;;;;11.10;8.87;;;18.10;1.00;;;;;;8292766;28;20205;-72
2023/04/21 09:43:52;;;;;;;11.63;8.13;;;18.20;1.00;;;;;;8340841;28;20216;-69
2023/04/21 09:52:38;;;;;;;16.03;10.90;;;18.60;1.00;;;;;;8377914;28;20228;-71
2023/04/21 09:56:57;;;;;;;15.00;9.50;;;18.70;1.00;;;;;;8288869;28;20283;-70
2023/04/21 10:01:45;;;;;;;11.90;8.33;;;18.80;1.00;;;;;;8283240;28;20222;-71
2023/04/21 10:05:52;;;;;;;10.40;7.30;;;18.90;1.00;;;;;;8280779;28;20375;-70
2023/04/21 10:10:47;;;;;;;9.73;6.77;;;19.10;1.00;;;;;;8283767;28;20214;-72
2023/04/21 10:15:16;;;;;;;14.00;7.77;;;19.10;1.00;;;;;;8285263;28;20195;-71
2023/04/21 10:30:26;;;;;;;10.93;7.17;;;19.50;1.00;;;;;;8180992;28;20263;-70
2023/04/21 10:34:59;;;;;;;13.13;7.60;;;19.20;1.00;;;;;;8163502;28;20197;-71
2023/04/21 10:39:17;;;;;;;;;;;;;;;;;;;;;
2023/04/21 10:43:41;;;;;;;11.70;7.07;;;19.20;1.00;;;;;;8303571;28;20328;-69
2023/04/21 10:47:50;;;;;;;12.63;7.03;;;19.30;1.00;;;;;;8292681;28;20281;-71
2023/04/21 10:52:06;;;;;;;10.40;7.20;;;19.30;1.00;;;;;;8354192;28;20213;-69
2023/04/21 10:56:45;;;;;;;9.87;7.10;;;19.30;1.00;;;;;;8361842;28;20205;-71
2023/04/21 11:05:33;;;;;;;9.80;6.20;;;19.00;1.00;;;;;;8295212;28;20217;-72
2023/04/21 11:35:21;;;;;;;;;;;;;;;;;;;;;
2023/04/21 11:40:07;;;;;;;6.20;5.50;;;20.30;1.00;;;;;;8209443;28;20238;-71
2023/04/21 11:45:06;;;;;;;;;;;;;;;;;;;;;
2023/04/21 12:03:57;;;;;;;9.13;5.40;;;21.00;1.00;;;;;;8249136;28;20221;-70
2023/04/21 12:08:45;;;;;;;7.43;5.90;;;21.00;1.00;;;;;;8319325;28;20205;-69
2023/04/21 12:12:58;;;;;;;8.80;6.47;;;21.10;1.00;;;;;;8292363;28;20289;-70
2023/04/21 12:17:08;;;;;;;7.67;6.47;;;21.30;1.00;;;;;;8305678;28;20183;-68
2023/04/21 12:21:42;;;;;;;;;;;;;;;;;;;;;
2023/04/21 12:26:14;;;;;;;10.10;6.50;;;20.70;1.00;;;;;;8368909;28;20185;-68
2023/04/21 12:30:20;;;;;;;7.80;5.90;;;20.50;1.00;;;;;;8373082;28;20249;-68
2023/04/21 12:40:15;;;;;;;9.60;7.00;;;20.90;1.00;;;;;;8214136;28;20211;-69
2023/04/21 12:44:43;;;;;;;;;;;;;;;;;;;;;
2023/04/21 12:49:13;;;;;;;;;;;;;;;;;;;;;
2023/04/21 12:53:37;;;;;;;9.23;5.93;;;20.50;1.00;;;;;;8259269;28;20214;-66
2023/04/21 12:57:58;;;;;;;9.63;6.57;;;20.40;1.00;;;;;;8336517;28;20217;-69
2023/04/21 13:02:02;;;;;;;9.20;6.30;;;20.10;1.00;;;;;;8313747;28;20205;-68
2023/04/21 13:21:00;;;;;;;11.60;6.57;;;19.30;1.00;;;;;;8183713;28;20272;-67
2023/04/21 13:25:33;;;;;;;7.07;6.23;;;19.60;1.00;;;;;;8227646;28;20199;-67
2023/04/21 13:30:11;;;;;;;6.13;5.40;;;19.90;1.00;;;;;;8231410;28;20211;-69
2023/04/21 13:35:52;;;;;;;7.40;5.73;;;20.40;1.00;;;;;;8206475;28;20285;-70
2023/04/21 13:40:12;;;;;;;9.07;6.30;;;21.00;1.00;;;;;;8289312;28;20261;-68
2023/04/21 13:44:55;;;;;;;9.43;6.10;;;21.20;1.00;;;;;;8361840;28;20212;-68
2023/04/21 13:49:14;;;;;;;8.80;6.67;;;20.90;1.00;;;;;;8346001;28;20263;-70
2023/04/21 13:53:41;;;;;;;8.70;5.90;;;20.60;1.00;;;;;;8347353;28;20200;-72
2023/04/21 14:08:03;;;;;;;10.70;5.77;;;21.00;1.00;;;;;;8056156;29;20313;-67
2023/04/21 14:12:50;;;;;;;12.90;6.60;;;20.70;1.00;;;;;;8059566;29;20227;-68
2023/04/21 14:17:21;;;;;;;6.30;5.50;;;20.40;1.00;;;;;;8031323;29;20255;-67
2023/04/21 14:51:55;;;;;;;;;;;;;;;;;;;;;
2023/04/21 15:06:52;;;;;;;;;;;;;;;;;;;;;
2023/04/21 15:11:47;;;;;;;10.53;7.83;;;21.00;1.00;;;;;;8261834;28;20246;-68
2023/04/21 15:16:59;;;;;;;;;;;;;;;;;;;;;
2023/04/21 15:21:09;;;;;;;7.37;5.87;;;20.00;1.00;;;;;;8160879;28;20225;-69
2023/04/21 15:30:59;;;;;;;7.57;6.20;;;19.20;1.00;;;;;;8049257;29;20279;-73
2023/04/21 15:40:42;;;;;;;8.23;5.40;;;18.90;1.00;;;;;;8191532;28;20195;-69
2023/04/21 15:55:06;;;;;;;;;;;;;;;;;;;;;
2023/04/21 16:04:57;;;;;;;10.40;5.67;;;19.70;1.00;;;;;;8204830;28;20208;-69
2023/04/21 16:09:11;;;;;;;7.03;5.27;;;19.80;1.00;;;;;;8202296;28;20200;-70
2023/04/21 16:18:16;;;;;;;8.67;5.90;;;19.60;1.00;;;;;;8232145;28;20192;-68
2023/04/21 16:22:49;;;;;;;;;;;;;;;;;;;;;
2023/04/21 16:32:17;;;;;;;11.80;7.90;;;18.60;1.00;;;;;;8149846;28;20259;-71
2023/04/21 16:36:46;;;;;;;12.80;7.20;;;18.30;1.00;;;;;;8235860;28;20230;-71
2023/04/21 16:40:56;;;;;;;18.00;12.27;;;18.00;1.00;;;;;;8238237;28;20230;-70
2023/04/21 16:49:37;;;;;;;12.83;8.80;;;17.80;1.00;;;;;;8245829;28;20211;-71
2023/04/21 17:09:58;;;;;;;16.93;11.50;;;17.70;1.00;;;;;;8135955;28;20201;-71
2023/04/21 17:35:27;;;;;;;8.73;7.67;;;16.70;1.00;;;;;;8099429;29;20200;-70
2023/04/21 17:40:21;;;;;;;54.30;35.30;;;16.60;1.00;;;;;;8087222;29;20256;-70
2023/04/21 17:53:46;;;;;;;37.07;27.63;;;16.30;1.00;;;;;;8139685;28;20244;-73
2023/04/21 17:58:22;;;;;;;35.23;24.13;;;16.00;1.00;;;;;;8157883;28;20316;-70
2023/04/21 18:02:42;;;;;;;80.30;38.50;;;15.70;1.00;;;;;;8174286;28;20212;-69
2023/04/21 18:11:33;;;;;;;63.60;32.67;;;15.10;1.00;;;;;;8197761;28;20247;-72
2023/04/21 18:15:40;;;;;;;33.47;20.30;;;14.90;1.00;;;;;;8231565;28;20222;-73
2023/04/21 18:19:59;;;;;;;33.77;19.67;;;14.70;1.00;;;;;;8261025;28;20206;-67
2023/04/21 18:24:06;;;;;;;23.53;13.37;;;14.50;1.00;;;;;;8250100;28;20203;-67
2023/04/21 18:28:37;;;;;;;21.60;13.63;;;14.30;1.00;;;;;;8239440;28;20196;-67
2023/04/21 18:32:39;;;;;;;20.27;13.70;;;14.10;1.00;;;;;;8225541;28;20226;-67
2023/04/21 18:37:17;;;;;;;;;;;;;;;;;;;;;
2023/04/21 18:41:28;;;;;;;29.77;21.40;;;13.70;1.00;;;;;;8240933;28;20234;-67
2023/04/21 18:45:35;;;;;;;45.83;34.43;;;13.50;1.00;;;;;;8218245;28;20344;-67
2023/04/21 18:50:13;;;;;;;46.50;29.07;;;13.40;1.00;;;;;;8222303;28;20224;-67
2023/04/21 18:54:20;;;;;;;67.53;37.60;;;13.20;1.00;;;;;;8234842;28;20204;-67
2023/04/21 18:58:36;;;;;;;57.03;34.30;;;13.00;1.00;;;;;;8229779;28;20218;-67
2023/04/21 19:02:47;;;;;;;40.47;25.13;;;12.80;1.00;;;;;;8241330;28;20187;-68
2023/04/21 19:07:10;;;;;;;28.60;18.97;;;12.50;1.00;;;;;;8252998;28;20188;-68
2023/04/21 19:11:20;;;;;;;27.50;17.63;;;12.10;1.00;;;;;;8254754;28;20228;-67
2023/04/21 19:15:21;;;;;;;21.80;13.37;;;11.80;1.00;;;;;;8266154;28;20183;-67
2023/04/21 19:19:29;;;;;;;15.47;10.40;;;11.60;1.00;;;;;;8249232;28;20210;-66
2023/04/21 19:23:43;;;;;;;11.67;8.23;;;11.30;1.00;;;;;;8249986;28;20197;-73
2023/04/21 19:27:47;;;;;;;10.97;7.37;;;11.10;1.00;;;;;;8248491;28;20191;-71
2023/04/21 19:31:48;;;;;;;9.57;6.47;;;10.80;1.00;;;;;;8259707;28;20209;-71
2023/04/21 19:35:50;;;;;;;8.77;6.50;;;10.60;1.00;;;;;;8253106;28;20189;-71
2023/04/21 19:39:59;;;;;;;7.83;5.13;;;10.40;1.00;;;;;;8267876;28;20188;-71
2023/04/21 19:44:05;;;;;;;7.20;5.20;;;10.20;9.80;;;;;;8250633;28;20245;-72
2023/04/21 19:48:20;;;;;;;7.77;5.90;;;10.00;21.90;;;;;;8268075;28;20195;-72
2023/04/21 19:52:34;;;;;;;10.87;7.73;;;9.90;33.40;;;;;;8272638;28;20235;-71
2023/04/21 19:56:44;;;;;;;10.10;7.73;;;9.70;48.40;;;;;;8257236;28;20203;-71
2023/04/21 20:10:12;;;;;;;8.23;5.97;;;9.30;92.70;;;;;;8272538;28;20230;-72
2023/04/21 20:14:27;;;;;;;8.50;6.43;;;9.20;97.60;;;;;;8252862;28;20189;-73
2023/04/21 20:18:31;;;;;;;8.57;6.03;;;9.10;99.30;;;;;;8256164;28;20187;-66
2023/04/21 20:23:14;;;;;;;8.93;6.93;;;9.00;96.90;;;;;;8254072;28;20195;-68
2023/04/21 20:27:39;;;;;;;7.77;6.57;;;8.90;99.90;;;;;;8273403;28;20207;-67
2023/04/21 20:31:44;;;;;;;6.93;5.43;;;8.60;99.90;;;;;;8265953;28;20218;-67
2023/04/21 20:35:48;;;;;;;5.60;4.53;;;8.30;99.90;;;;;;8253652;28;20194;-67
2023/04/21 20:40:07;;;;;;;9.30;5.97;;;8.20;99.90;;;;;;8252765;28;20374;-66
2023/04/21 20:44:40;;;;;;;9.70;6.83;;;8.00;99.90;;;;;;8267093;28;20226;-66
2023/04/21 20:48:42;;;;;;;10.87;8.07;;;8.00;99.90;;;;;;8257777;28;20190;-73
2023/04/21 20:52:43;;;;;;;10.90;8.43;;;7.90;99.90;;;;;;8268765;28;20225;-71
2023/04/21 20:56:53;;;;;;;9.43;7.33;;;7.80;99.90;;;;;;8266102;28;20215;-72
2023/04/21 21:01:17;;;;;;;9.53;7.20;;;7.70;99.90;;;;;;8268806;28;20199;-72
2023/04/21 21:05:34;;;;;;;9.70;7.10;;;7.60;99.90;;;;;;8252874;28;20234;-67
2023/04/21 21:09:42;;;;;;;7.57;6.27;;;7.50;99.90;;;;;;8255725;28;20251;-67
2023/04/21 21:14:09;;;;;;;6.37;5.43;;;7.40;99.90;;;;;;8251594;28;20206;-68
2023/04/21 21:18:22;;;;;;;9.57;6.27;;;7.30;99.90;;;;;;8246874;28;20290;-69
2023/04/21 21:22:33;;;;;;;8.73;6.40;;;7.10;99.90;;;;;;8248757;28;20206;-73
2023/04/21 21:26:53;;;;;;;7.80;6.33;;;7.00;99.90;;;;;;8267581;28;20204;-73
2023/04/21 21:31:15;;;;;;;7.63;4.67;;;6.90;99.90;;;;;;8252952;28;20211;-71
2023/04/21 21:35:41;;;;;;;6.30;5.10;;;6.80;99.90;;;;;;8250076;28;20234;-69
2023/04/21 21:39:46;;;;;;;5.87;4.53;;;6.70;99.90;;;;;;8270595;28;20203;-67
2023/04/21 21:43:50;;;;;;;6.87;4.93;;;6.60;99.90;;;;;;8254455;28;20282;-71
2023/04/21 21:47:52;;;;;;;6.07;4.87;;;6.50;99.90;;;;;;8256913;28;20199;-72
2023/04/21 21:52:01;;;;;;;8.07;5.27;;;6.50;99.90;;;;;;8254151;28;20218;-72
2023/04/21 21:56:11;;;;;;;6.13;4.60;;;6.40;99.90;;;;;;8264746;28;20211;-73
2023/04/21 22:00:19;;;;;;;9.73;6.33;;;6.30;99.90;;;;;;8247944;28;20195;-73
2023/04/21 22:04:36;;;;;;;;;;;;;;;;;;;;;
2023/04/21 22:08:38;;;;;;;16.17;10.13;;;6.10;99.90;;;;;;8268611;28;20214;-71
2023/04/21 22:12:42;;;;;;;20.77;10.47;;;5.90;1.00;;;;;;8266398;28;20231;-71
2023/04/21 22:17:39;;;;;;;18.00;9.50;;;5.90;1.00;;;;;;8255263;28;20254;-73
2023/04/21 22:21:40;;;;;;;10.00;6.80;;;5.80;1.00;;;;;;8247961;28;20267;-73
2023/04/21 22:26:08;;;;;;;7.27;5.10;;;5.60;1.00;;;;;;8248526;28;20187;-72
2023/04/21 22:30:33;;;;;;;7.73;5.40;;;5.50;1.00;;;;;;8247959;28;20211;-73
2023/04/21 22:34:37;;;;;;;8.23;5.73;;;5.40;1.00;;;;;;8254813;28;20202;-72
2023/04/21 22:38:45;;;;;;;8.80;6.17;;;5.30;1.00;;;;;;8252146;28;20187;-73
2023/04/21 22:42:49;;;;;;;8.77;6.47;;;5.30;1.00;;;;;;8252404;28;20191;-73
2023/04/21 22:47:03;;;;;;;6.87;5.63;;;5.20;1.00;;;;;;8243817;28;20191;-73
2023/04/21 22:51:10;;;;;;;7.97;5.93;;;5.10;1.00;;;;;;8254464;28;20219;-72
2023/04/21 22:55:14;;;;;;;6.80;5.43;;;5.00;8.20;;;;;;8255477;28;20191;-73
2023/04/21 22:59:28;;;;;;;6.97;5.60;;;4.90;29.80;;;;;;8266128;28;20218;-71
2023/04/21 23:03:29;;;;;;;8.07;5.47;;;4.80;25.70;;;;;;8249642;28;20188;-68
2023/04/21 23:07:45;;;;;;;6.87;5.17;;;4.80;28.70;;;;;;8246017;28;20203;-67
2023/04/21 23:12:01;;;;;;;6.47;5.10;;;4.70;38.70;;;;;;8265532;28;20212;-66
2023/04/21 23:16:10;;;;;;;5.83;5.00;;;4.60;56.40;;;;;;8246841;28;20270;-68
2023/04/21 23:20:21;;;;;;;7.20;5.33;;;4.50;73.60;;;;;;8252555;28;20285;-69
2023/04/21 23:24:45;;;;;;;6.10;4.63;;;4.50;89.30;;;;;;8257901;28;20194;-68
2023/04/21 23:28:48;;;;;;;8.00;5.47;;;4.40;99.30;;;;;;8245274;28;20193;-66
2023/04/21 23:32:53;;;;;;;7.30;5.40;;;4.30;99.90;;;;;;8265900;28;20290;-68
2023/04/21 23:37:39;;;;;;;6.70;5.00;;;4.30;99.90;;;;;;8255119;28;20232;-68
2023/04/21 23:42:11;;;;;;;6.43;5.13;;;4.20;99.90;;;;;;8259975;28;20300;-69
2023/04/21 23:46:18;;;;;;;7.20;4.80;;;4.20;99.90;;;;;;8245903;28;20202;-68
2023/04/21 23:50:51;;;;;;;9.37;5.53;;;4.10;99.90;;;;;;8243586;28;20208;-68
2023/04/21 23:54:55;;;;;;;8.20;5.87;;;4.10;99.90;;;;;;8265664;28;20187;-67
2023/04/21 23:59:02;;;;;;;7.33;6.10;;;4.00;99.90;;;;;;8259949;28;20214;-69
